Accueil
METAR-TAF:

METAR-TAF

Aéroports :

Moscou-Cheremetievo, Russie

Aéroport de Moscou-Cheremetievo

latitude: 55-59N, longitude: 037-30E, altitude: 190 m

Observation

Le bulletin a été fait il y a 39 minutes, à 18:00 UTC
Vent 2 kt de direction variable
Température 15°C
Humidité 67%
Pression 1010 hPa
Visibilité 10 km ou plus
pas de nuages en-dessous de 1500 mètres et pas de cumulonimbus.

METAR: UUEE 231800Z VRB01MPS CAVOK 15/09 Q1010 R24R/CLRD62 R24L/CLRD62 NOSIG

Heure: 21:39 (18:39 UTC)

Prévision

Le bulletin a été fait il y a 1 heure et 43 minutes, à 16:56 UTC
Prévision valable du 23 à 18 UTC au 24 à 18 UTC
Vent 4 kt de ouest/nord-ouest
Visibilité 10 km ou plus
Nuages fragmentés à une hauteur de 3000 ft
Evoluant progressivement
du 24 à 04 UTC au 24 à 06 UTC
Vent 10 kt de ouest/sud-ouest

TAF: UUEE 231656Z 2318/2418 30002MPS 9999 BKN030 TX22/2412Z TN07/2401Z BECMG 2404/2406 24005MPS

Observations et prévisions météorologiques de plus de 4000 aéroports (messages METAR et TAF).

Les stations disponibles sont représentées par des disques jaunes et rouges sur la carte.

Passer la souris dessus pour voir le nom de la station.

Cliquer dessus pour voir les observations et prévisions météorologiques.

Pour changer de carte: cliquez sur les boutons verts avec une croix noire pour zoomer, sur le bouton vert avec un tiret pour effectuer un zoom arrière, ou sur les flèches vertes pour les cartes adjacentes.


METAR-TAF: